HALF-HOURLY OBSERVATIONS INDEX

015

Northern Plateau--Barkly/Alice Spgs

ALICE SPRINGS AIRPORT

Site: 015590
Alt: 546.0m
11km SSE of ALICE SPRINGS


  Time     Wind        Temp  DP   Baro     Rain since   Rain past  Vis(m), Cloud(base in m), Weather
  local        km/h                         9am  last   hr   10m    
Mon 09:30  ENE 13/ 22  32.0  8.3  1015.5    0.0   0.0   0.0   0.0   10000 
Mon 10:00  ENE 11/ 19  32.8  8.9  1015.2    0.0   0.0   0.0   0.0   10000 
Mon 10:30    E 17/ 24  34.2 10.7  1014.7    0.0   0.0   0.0   0.0   10000 
Mon 11:00    E 13/ 24  34.9 10.7  1014.4    0.0   0.0   0.0   0.0   10000 
Mon 11:30   SE 13/ 20  36.0  9.5  1014.2    0.0   0.0   0.0   0.0   10000 
Mon 12:00   SE 20/ 32  36.8  6.9  1013.7    0.0   0.0   0.0   0.0   10000 
Mon 12:30   SE 22/ 30  36.4  7.4  1013.4    0.0   0.0   0.0   0.0   10000 
Mon 13:00    E 19/ 32  37.7  6.6  1012.9    0.0   0.0   0.0   0.0   10000 
Mon 13:30    E 32/ 37  37.6  6.6  1012.3    0.0   0.0   0.0   0.0   10000 
Mon 14:00   SE  9/ 19  37.3  7.3  1011.7    0.0   0.0   0.0   0.0   10000 
Mon 14:12  SSE 32/ 37  37.6  6.6  1011.6    0.0   0.0  ----   0.0   10000 
Mon 14:30    E 15/ 30  38.9  5.5  1011.3    0.0   0.0   0.0   0.0   10000 
Mon 15:00  NNE  7/ 15  37.7  5.6  1010.9    0.0   0.0   0.0   0.0   10000 

JERVOIS

Site: 015602
Alt: 328.0m
247km ENE of ALICE SPRINGS


  Time     Wind        Temp  DP   Baro     Rain since   Rain past  Vis(m), Cloud(base in m), Weather
  local        km/h                         9am  last   hr   10m    
Mon 09:30    E 11/ 19  33.2 16.5  1014.0    0.0   0.0   0.0   0.0   ----- 
Mon 10:00  ESE 15/ 20  34.3 15.7  1013.9    0.0   0.0   0.0   0.0   ----- 
Mon 10:30  ESE  9/ 20  35.5 15.3  1013.4    0.0   0.0   0.0   0.0   ----- 
Mon 11:00  SSE 17/ 30  35.8 12.1  1012.8    0.0   0.0   0.0   0.0   ----- 
Mon 11:30  SSE 20/ 35  36.6 11.4  1012.6    0.0   0.0   0.0   0.0   ----- 
Mon 12:00  ESE 19/ 22  37.7 10.9  1012.3    0.0   0.0   0.0   0.0   ----- 
Mon 12:30    E 22/ 37  38.4  9.0  1011.9    0.0   0.0   0.0   0.0   ----- 
Mon 13:00   SE 13/ 20  38.4  9.0  1011.4    0.0   0.0   0.0   0.0   ----- 
Mon 13:30    E 19/ 26  38.9 10.3  1010.8    0.0   0.0   0.0   0.0   ----- 
Mon 14:00  ENE 20/ 30  39.1 11.3  1010.2    0.0   0.0   0.0   0.0   ----- 
Mon 14:30   SE 15/ 32  38.2 11.3  1009.8    0.0   0.0   0.0   0.0   ----- 
Mon 15:00  ENE 19/ 35  39.0 12.7  1009.6    0.0   0.0   0.0   0.0   ----- 

RABBIT FLAT

Site: 015666
Alt: 340.0m
296km NW of YUENDUMU


  Time     Wind        Temp  DP   Baro     Rain since   Rain past  Vis(m), Cloud(base in m), Weather
  local        km/h                         9am  last   hr   10m    
Mon 09:30  ------/---  32.1 21.9  1012.5    0.0   0.0   0.0   0.0   ----- 
Mon 10:00  ------/---  32.9 21.7  1012.7    0.0   0.0   0.0   0.0   ----- 
Mon 10:30  ------/---  33.5 21.6  1012.7    0.0   0.0   0.0   0.0   ----- 
Mon 11:00  ------/---  34.4 22.1  1012.5    0.0   0.0   0.0   0.0   ----- 
Mon 11:30  ------/---  35.4 20.5  1012.1    0.0   0.0   0.0   0.0   ----- 
Mon 12:00  ------/---  35.5 21.0  1011.9    0.0   0.0   0.0   0.0   ----- 
Mon 12:30  ------/---  36.2 20.4  1011.5    0.0   0.0   0.0   0.0   ----- 
Mon 13:00  ------/---  35.1 19.5  1010.9    0.0   0.0   0.0   0.0   ----- 
Mon 13:30  ------/---  35.8 20.1  1010.5    0.0   0.0   0.0   0.0   ----- 
Mon 14:00  ------/---  37.3 19.3  1009.9    0.0   0.0   0.0   0.0   ----- 
Mon 14:30  ------/---  37.0 19.0  1009.2    0.0   0.0   0.0   0.0   ----- 
Mon 15:00  ------/---  37.8 17.7  1008.9    0.0   0.0   0.0   0.0   ----- 

TENNANT CREEK AIRPORT

Site: 015135
Alt: 375.7m
1km NW of TENNANT CREEK


  Time     Wind        Temp  DP   Baro     Rain since   Rain past  Vis(m), Cloud(base in m), Weather
  local        km/h                         9am  last   hr   10m    
Mon 09:30    E 17/ 24  30.3 22.7  1012.7    0.0   0.0   0.0   0.0   10000 
Mon 10:00    E 22/ 33  30.5 21.9  1012.6    0.0   0.0   0.0   0.0   10000|SC 900 
Mon 10:30    E 19/ 28  31.8 21.9  1012.5    0.0   0.0   0.0   0.0   10000|SC1050 
Mon 11:00  ESE 24/ 28  32.2 20.5  1012.5    0.0   0.0   0.0   0.0   10000 
Mon 11:30   SE 26/ 35  32.7 18.8  1012.2    0.0   0.0   0.0   0.0   10000|SC1380 
Mon 12:00  ESE 28/ 37  32.7 19.6  1011.8    0.0   0.0   0.0   0.0   10000|SC1650 
Mon 12:30  ESE 26/ 33  33.7 19.7  1011.4    0.0   0.0   0.0   0.0   10000|BR1710 BR2040 
Mon 13:00  ESE 24/ 33  33.7 19.7  1010.9    0.0   0.0   0.0   0.0   10000|SC1770 
Mon 13:30  ESE 26/ 37  34.3 18.8  1010.3    0.0   0.0   0.0   0.0   10000|SC1860 SC2220 
Mon 14:00    E 28/ 41  34.6 19.0  1009.9    0.0   0.0   0.0   0.0   10000|SC1920 
Mon 14:30  ESE 24/ 32  34.0 18.5  1009.4    0.0   0.0   0.0   0.0   10000|SC1980 
Mon 15:00   SE 26/ 35  35.3 19.2  1008.8    0.0   0.0   0.0   0.0   10000|SC1980 

TERRITORY GRAPE FARM

Site: 015643
Alt: 565.6m
141km N of ALICE SPRINGS


  Time     Wind        Temp  DP   Baro     Rain since   Rain past  Vis(m), Cloud(base in m), Weather
  local        km/h                         9am  last   hr   10m    
Mon 09:30   NE 13/ 24  31.5 15.9  1015.2    0.0   0.0   0.0   0.0   ----- 
Mon 10:00  ENE 19/ 26  33.0 15.5  1014.9    0.0   0.0   0.0   0.0   ----- 
Mon 10:30  NNE 15/ 22  34.4 14.8  1014.8    0.0   0.0   0.0   0.0   ----- 
Mon 11:00    E 15/ 32  34.6 12.9  1014.4    0.0   0.0   0.0   0.0   ----- 
Mon 11:30    E 19/ 26  35.9 12.8  1014.1    0.0   0.0   0.0   0.0   ----- 
Mon 12:00   SE 11/ 17  35.9 12.2  1013.7    0.0   0.0   0.0   0.0   ----- 
Mon 12:30   SE 17/ 30  36.6 12.1  1013.3    0.0   0.0   0.0   0.0   ----- 
Mon 13:00    E 20/ 30  36.8 10.2  1012.9    0.0   0.0   0.0   0.0   ----- 
Mon 13:30  ESE 17/ 26  37.7 12.3  1012.2    0.0   0.0   0.0   0.0   ----- 
Mon 14:00    E 20/ 30  38.3  9.0  1011.5    0.0   0.0   0.0   0.0   ----- 
Mon 14:30    E 17/ 26  38.2  9.7  1011.1    0.0   0.0   0.0   0.0   ----- 
Mon 15:00    E 17/ 32  38.3  9.8  1010.8    0.0   0.0   0.0   0.0   ----- 

WALUNGURRU AIRPORT

Site: 015664
Alt: 454.3m
272km WSW of YUENDUMU


  Time     Wind        Temp  DP   Baro     Rain since   Rain past  Vis(m), Cloud(base in m), Weather
  local        km/h                         9am  last   hr   10m    
Mon 09:30    N 28/ 35  35.6 14.3  1012.5    0.0   0.0   0.0   0.0   ----- 
Mon 10:00    N 26/ 35  36.7 14.6  1012.5    0.0   0.0   0.0   0.0   ----- 
Mon 10:30    N 28/ 37  37.8 14.4  1012.2    0.0   0.0   0.0   0.0   ----- 
Mon 11:00    N 26/ 37  37.8 13.8  1012.2    0.0   0.0   0.0   0.0   ----- 
Mon 11:30    N 24/ 33  38.5 13.7  1011.9    0.0   0.0   0.0   0.0   ----- 
Mon 12:00    N 24/ 33  39.3 12.9  1011.5    0.0   0.0   0.0   0.0   ----- 
Mon 12:30  NNW 19/ 35  38.8 12.5  1011.2    0.0   0.0   0.0   0.0   ----- 
Mon 13:00    N 22/ 30  40.1 10.4  1010.8    0.0   0.0   0.0   0.0   ----- 
Mon 13:30  NNE 17/ 28  40.1 12.1  1010.4    0.0   0.0   0.0   0.0   ----- 
Mon 14:00    E 11/ 20  40.8 10.9  1009.8    0.0   0.0   0.0   0.0   ----- 
Mon 14:30    E  9/ 15  40.7 10.9  1009.5    0.0   0.0   0.0   0.0   ----- 
Mon 15:00  ESE  9/ 15  40.8  9.1  1009.0    0.0   0.0   0.0   0.0   ----- 

YULARA AIRPORT

Site: 015635
Alt: 492.0m
7km N of YULARA


  Time     Wind        Temp  DP   Baro     Rain since   Rain past  Vis(m), Cloud(base in m), Weather
  local        km/h                         9am  last   hr   10m    
Mon 09:30  ENE 24/ 33  33.5  6.7  1014.5    0.0   0.0   0.0   0.0   10000 
Mon 10:00  ENE 22/ 32  34.9  7.9  1014.5    0.0   0.0   0.0   0.0   10000 
Mon 10:30   NE 22/ 32  35.3  8.2  1014.2    0.0   0.0   0.0   0.0   10000 
Mon 11:00   NE 19/ 30  36.1  8.8  1014.0    0.0   0.0   0.0   0.0   10000 
Mon 11:30  NNE 19/ 32  36.9  7.8  1013.5    0.0   0.0   0.0   0.0   10000 
Mon 12:00   NE 15/ 28  38.1  8.8  1013.1    0.0   0.0   0.0   0.0   10000 
Mon 12:30    N 20/ 24  37.9  6.8  1012.6    0.0   0.0   0.0   0.0   10000 
Mon 13:00  ENE 11/ 22  39.3  7.9  1011.9    0.0   0.0   0.0   0.0   10000 
Mon 13:30   NW  9/ 17  39.5  7.1  1011.5    0.0   0.0   0.0   0.0   10000 
Mon 14:00   NE 20/ 30  40.2  6.5  1011.0    0.0   0.0   0.0   0.0   10000 
Mon 14:30  NNE 11/ 17  39.5  6.0  1010.6    0.0   0.0   0.0   0.0   10000 
Mon 15:00  ESE 19/ 30  40.4  5.5  1010.1    0.0   0.0   0.0   0.0   10000